Altoona, Florida
Current Conditions -  °F | °C
As of 9:53 AM on Sunday 21 Dec 2014 (Local Time) from KLEE Reporting Station
Scattered Clouds Scattered Clouds  
Wind Chill: 68°   Ceiling: Unl
Heat Index: 68°   Visibility: 10mi
Dew Point: 62°   Wind: 8mph
Humidity: 81%   Direction: 130°SE
Pressure: 30.12"   Gusts: NA
Location:  28.97°N, 81.65°W
Report Text: KLEE 211453Z 13007KT 10SM FEW055 SCT120 20/17 A3012 RMK AO2 SLP197 T02000167 50015
Loading
Personal Weather Stations






























Interactive Weather Map New forecast layout! Learn more

10-Day Weather Forecast

Advertisements
Track Severe Weather on mobile